createdAt,value
2017-11-10T00:00:14.499Z,31.13
2017-11-10T00:02:41.791Z,30.47
2017-11-10T00:05:09.072Z,34.37
2017-11-10T00:07:36.373Z,31.50
2017-11-10T00:10:03.640Z,32.67
2017-11-10T00:12:30.914Z,29.57
2017-11-10T00:14:58.209Z,31.03
2017-11-10T00:17:25.485Z,31.07
2017-11-10T00:19:52.771Z,31.10
2017-11-10T00:22:20.040Z,32.60
2017-11-10T00:24:47.494Z,31.03
2017-11-10T00:27:14.784Z,29.00
2017-11-10T00:29:42.068Z,31.40
2017-11-10T00:32:09.520Z,30.00
2017-11-10T00:34:37.296Z,30.57
2017-11-10T00:37:04.576Z,30.23
2017-11-10T00:39:31.863Z,33.70
2017-11-10T00:41:59.921Z,27.03
2017-11-10T00:44:27.194Z,33.63
2017-11-10T00:46:54.975Z,33.10
2017-11-10T00:49:22.300Z,31.53
2017-11-10T00:51:49.588Z,29.80
2017-11-10T00:54:16.864Z,29.33
2017-11-10T00:56:44.161Z,30.97
2017-11-10T00:59:11.435Z,30.80
2017-11-10T01:01:42.580Z,30.53
2017-11-10T01:04:12.506Z,31.10
2017-11-10T01:06:54.568Z,29.83
2017-11-10T01:09:59.509Z,33.20
2017-11-10T01:12:30.005Z,31.23
2017-11-10T01:15:00.713Z,31.87
2017-11-10T01:17:39.717Z,34.60
2017-11-10T01:20:08.363Z,30.70
2017-11-10T01:22:35.653Z,30.60
2017-11-10T01:25:03.027Z,32.07
2017-11-10T01:27:30.295Z,33.07
2017-11-10T01:29:57.567Z,32.10
2017-11-10T01:32:24.860Z,29.17
2017-11-10T01:34:52.144Z,32.67
2017-11-10T01:37:19.425Z,32.57
2017-11-10T01:39:46.700Z,30.70
2017-11-10T01:42:13.992Z,33.30
2017-11-10T01:44:41.696Z,31.97
2017-11-10T01:47:08.981Z,34.00
2017-11-10T01:49:51.128Z,33.50
2017-11-10T01:52:18.440Z,35.03
2017-11-10T01:54:45.712Z,32.27
2017-11-10T01:57:12.984Z,37.07
2017-11-10T01:59:40.276Z,34.43
2017-11-10T02:02:07.559Z,32.60
2017-11-10T02:04:34.849Z,35.80
2017-11-10T02:07:02.125Z,34.37
2017-11-10T02:09:29.411Z,38.60
2017-11-10T02:11:56.693Z,35.00
2017-11-10T02:14:26.898Z,36.20
2017-11-10T02:16:54.164Z,34.23
2017-11-10T02:19:21.484Z,33.27
2017-11-10T02:21:48.760Z,36.07
2017-11-10T02:24:16.058Z,37.73
2017-11-10T02:26:43.396Z,36.40
2017-11-10T02:29:13.550Z,37.57
2017-11-10T02:31:40.824Z,36.90
2017-11-10T02:34:08.153Z,35.90
2017-11-10T02:36:35.421Z,34.53
2017-11-10T02:39:02.696Z,39.63
2017-11-10T02:41:29.989Z,36.50
2017-11-10T02:43:57.260Z,37.07
2017-11-10T02:46:24.556Z,35.67
2017-11-10T02:48:51.830Z,37.90
2017-11-10T02:51:19.124Z,34.67
2017-11-10T02:53:46.399Z,33.70
2017-11-10T02:56:13.692Z,35.70
2017-11-10T02:58:40.966Z,34.80
2017-11-10T03:01:08.270Z,34.60
2017-11-10T03:03:35.547Z,32.73
2017-11-10T03:06:02.833Z,31.03
2017-11-10T03:08:30.098Z,31.00
2017-11-10T03:10:57.426Z,32.20
2017-11-10T03:13:24.700Z,34.53
2017-11-10T03:15:51.976Z,31.23
2017-11-10T03:18:19.267Z,31.97
2017-11-10T03:20:46.553Z,34.80
2017-11-10T03:23:13.843Z,31.30
2017-11-10T03:25:41.128Z,36.57
2017-11-10T03:28:08.416Z,30.73
2017-11-10T03:30:35.686Z,34.00
2017-11-10T03:33:02.984Z,32.23
2017-11-10T03:35:30.261Z,31.60
2017-11-10T03:37:57.547Z,30.83
2017-11-10T03:40:24.828Z,26.67
2017-11-10T03:42:52.133Z,27.83
2017-11-10T03:45:19.851Z,27.40
2017-11-10T03:47:47.137Z,29.10
2017-11-10T03:50:14.413Z,25.57
2017-11-10T03:52:41.677Z,26.50
2017-11-10T03:55:08.972Z,27.13
2017-11-10T03:57:36.249Z,25.20
2017-11-10T04:00:03.545Z,26.67
2017-11-10T04:02:30.828Z,25.90
2017-11-10T04:04:58.111Z,23.50
2017-11-10T04:07:25.389Z,24.90
2017-11-10T04:09:52.701Z,28.10
2017-11-10T04:12:19.971Z,24.90
2017-11-10T04:14:47.249Z,24.60
2017-11-10T04:17:14.543Z,26.90
2017-11-10T04:19:41.824Z,24.83
2017-11-10T04:22:09.116Z,24.40
2017-11-10T04:24:36.398Z,23.07
2017-11-10T04:27:03.699Z,25.40
2017-11-10T04:29:30.982Z,21.67
2017-11-10T04:31:58.274Z,22.80
2017-11-10T04:34:25.546Z,24.20
2017-11-10T04:36:52.835Z,22.37
2017-11-10T04:39:20.110Z,21.80
2017-11-10T04:41:47.396Z,21.77
2017-11-10T04:44:14.673Z,21.57
2017-11-10T04:46:41.969Z,22.90
2017-11-10T04:49:09.251Z,22.27
2017-11-10T04:51:36.576Z,23.07
2017-11-10T04:54:03.859Z,22.27
2017-11-10T04:56:31.131Z,22.60
2017-11-10T04:58:58.430Z,20.33
2017-11-10T05:01:25.712Z,21.33
2017-11-10T05:03:52.997Z,21.03
2017-11-10T05:08:53.925Z,20.30
2017-11-10T05:11:21.196Z,19.50
2017-11-10T05:13:48.489Z,19.23
2017-11-10T05:16:15.764Z,19.27
2017-11-10T05:18:43.314Z,18.97
2017-11-10T05:21:11.428Z,19.37
2017-11-10T05:23:38.707Z,18.93
2017-11-10T05:26:06.104Z,16.37
2017-11-10T05:28:33.412Z,16.53
2017-11-10T05:31:00.684Z,16.80
2017-11-10T05:33:28.215Z,16.93
2017-11-10T05:35:55.518Z,17.67
2017-11-10T05:38:22.785Z,15.73
2017-11-10T05:40:50.073Z,15.27
2017-11-10T05:43:17.344Z,15.73
2017-11-10T05:45:44.639Z,14.97
2017-11-10T05:48:11.912Z,15.93
2017-11-10T05:50:39.858Z,13.37
2017-11-10T05:55:41.833Z,14.60
2017-11-10T05:58:09.807Z,15.10
2017-11-10T06:00:37.100Z,12.83
2017-11-10T06:03:04.386Z,14.00
2017-11-10T06:05:31.885Z,14.48
2017-11-10T06:07:59.151Z,13.60
2017-11-10T06:10:26.445Z,15.00
2017-11-10T06:12:53.715Z,13.87
2017-11-10T06:15:20.993Z,13.40
2017-11-10T06:17:48.280Z,12.97
2017-11-10T06:20:15.556Z,11.27
2017-11-10T06:22:42.858Z,13.90
2017-11-10T06:25:10.129Z,12.90
2017-11-10T06:27:37.424Z,12.57
2017-11-10T06:30:04.697Z,13.33
2017-11-10T06:32:31.985Z,14.93
2017-11-10T06:34:59.260Z,12.70
2017-11-10T06:37:26.555Z,14.80
2017-11-10T06:39:53.830Z,13.30
2017-11-10T06:42:21.125Z,14.27
2017-11-10T06:44:48.398Z,16.30
2017-11-10T06:47:15.694Z,16.70
2017-11-10T06:49:42.963Z,15.30
2017-11-10T06:52:10.275Z,14.70
2017-11-10T06:54:37.559Z,16.83
2017-11-10T06:57:04.840Z,14.50
2017-11-10T06:59:32.144Z,15.57
2017-11-10T07:01:59.592Z,15.20
2017-11-10T07:04:26.867Z,14.50
2017-11-10T07:06:54.177Z,14.20
2017-11-10T07:09:21.497Z,13.07
2017-11-10T07:11:48.771Z,14.33
2017-11-10T07:14:16.055Z,13.90
2017-11-10T07:16:43.352Z,15.10
2017-11-10T07:19:10.672Z,12.87
2017-11-10T07:21:37.941Z,15.33
2017-11-10T07:24:05.254Z,14.10
2017-11-10T07:26:32.537Z,13.03
2017-11-10T07:28:59.804Z,13.93
2017-11-10T07:31:27.118Z,14.20
2017-11-10T07:33:54.457Z,16.43
2017-11-10T07:36:21.727Z,13.40
2017-11-10T07:38:49.006Z,18.60
2017-11-10T07:41:16.300Z,17.70
2017-11-10T07:43:43.577Z,20.60
2017-11-10T07:46:10.870Z,21.80
2017-11-10T07:48:38.144Z,24.30
2017-11-10T07:51:05.452Z,25.17
2017-11-10T07:53:32.727Z,25.57
2017-11-10T07:56:01.153Z,21.37
2017-11-10T07:58:28.434Z,22.17
2017-11-10T08:00:55.715Z,22.70
2017-11-10T08:03:23.023Z,22.47
2017-11-10T08:05:50.684Z,20.07
2017-11-10T08:08:18.486Z,20.77
2017-11-10T08:10:45.760Z,22.13
2017-11-10T08:13:13.062Z,18.67
2017-11-10T08:15:40.374Z,19.90
2017-11-10T08:18:07.643Z,17.60
2017-11-10T08:20:34.913Z,18.20
2017-11-10T08:23:02.219Z,17.27
2017-11-10T08:25:29.488Z,17.87
2017-11-10T08:27:56.794Z,19.07
2017-11-10T08:30:24.069Z,16.90
2017-11-10T08:32:51.375Z,18.80
2017-11-10T08:35:18.648Z,18.90
2017-11-10T08:37:45.920Z,14.47
2017-11-10T08:40:13.216Z,18.40
2017-11-10T08:42:40.489Z,16.77
2017-11-10T08:45:07.796Z,15.07
2017-11-10T08:47:35.103Z,15.93
2017-11-10T08:50:02.376Z,16.17
2017-11-10T08:52:29.692Z,16.93
2017-11-10T08:54:56.988Z,15.00
2017-11-10T08:57:24.261Z,17.67
2017-11-10T08:59:51.562Z,15.27
2017-11-10T09:02:18.837Z,14.13
2017-11-10T09:04:46.138Z,17.00
2017-11-10T09:07:13.409Z,18.73
2017-11-10T09:09:40.713Z,17.43
2017-11-10T09:12:07.984Z,15.70
2017-11-10T09:14:35.291Z,14.10
2017-11-10T09:17:02.588Z,13.90
2017-11-10T09:19:29.861Z,15.50
2017-11-10T09:21:57.175Z,12.90
2017-11-10T09:24:24.480Z,13.97
2017-11-10T09:26:51.753Z,12.93
2017-11-10T09:29:22.816Z,14.27
2017-11-10T09:32:08.704Z,13.90
2017-11-10T09:34:36.480Z,13.50
2017-11-10T09:37:09.515Z,15.07
2017-11-10T09:39:52.462Z,12.50
2017-11-10T09:42:22.392Z,13.20
2017-11-10T09:44:50.583Z,12.17
2017-11-10T09:47:31.616Z,11.90
2017-11-10T09:50:14.832Z,11.27
2017-11-10T09:52:57.917Z,11.83
2017-11-10T09:55:30.797Z,12.33
2017-11-10T09:58:03.997Z,11.80
2017-11-10T10:00:31.268Z,12.00
2017-11-10T10:03:13.465Z,13.87
2017-11-10T10:05:44.296Z,14.60
2017-11-10T10:08:12.394Z,16.00
2017-11-10T10:10:41.483Z,13.67
2017-11-10T10:13:14.461Z,13.97
2017-11-10T10:15:47.548Z,15.20
2017-11-10T10:18:14.822Z,14.17
2017-11-10T10:20:47.899Z,14.23
2017-11-10T10:23:15.198Z,12.97
2017-11-10T10:25:42.468Z,14.23
2017-11-10T10:28:09.773Z,12.17
2017-11-10T10:30:37.036Z,12.70
2017-11-10T10:33:04.336Z,11.90
2017-11-10T10:35:31.608Z,12.07
2017-11-10T10:37:58.916Z,11.53
2017-11-10T10:40:26.191Z,11.57
2017-11-10T10:42:53.483Z,11.27
2017-11-10T10:45:20.796Z,8.80
2017-11-10T10:47:48.057Z,9.23
2017-11-10T10:50:15.339Z,10.20
2017-11-10T10:52:42.631Z,7.93
2017-11-10T10:55:09.888Z,8.60
2017-11-10T10:57:37.183Z,8.40
2017-11-10T11:00:04.555Z,7.40
2017-11-10T11:02:31.813Z,7.43
2017-11-10T11:04:59.107Z,8.10
2017-11-10T11:07:26.366Z,6.97
2017-11-10T11:09:53.669Z,9.13
2017-11-10T11:12:20.935Z,8.20
2017-11-10T11:14:48.209Z,9.27
2017-11-10T11:17:15.492Z,8.43
2017-11-10T11:19:42.752Z,8.70
2017-11-10T11:22:10.058Z,8.80
2017-11-10T11:24:37.363Z,8.53
2017-11-10T11:27:04.621Z,8.77
2017-11-10T11:29:31.908Z,10.13
2017-11-10T11:31:59.189Z,8.50
2017-11-10T11:34:26.449Z,8.10
2017-11-10T11:36:53.746Z,7.17
2017-11-10T11:39:21.014Z,9.00
2017-11-10T11:41:48.680Z,7.10
2017-11-10T11:44:15.940Z,7.47
2017-11-10T11:46:43.206Z,9.30
2017-11-10T11:49:10.503Z,7.53
2017-11-10T11:51:37.762Z,6.40
2017-11-10T11:54:05.032Z,6.87
2017-11-10T11:56:32.317Z,6.03
2017-11-10T11:58:59.619Z,6.10
2017-11-10T12:01:26.897Z,5.87
2017-11-10T12:03:54.149Z,7.23
2017-11-10T12:06:21.445Z,6.60
2017-11-10T12:08:48.708Z,6.30
2017-11-10T12:11:15.967Z,6.40
2017-11-10T12:13:43.252Z,5.53
2017-11-10T12:16:10.548Z,5.80
2017-11-10T12:18:37.831Z,5.50
2017-11-10T12:21:05.140Z,4.40
2017-11-10T12:23:32.415Z,4.97
2017-11-10T12:25:59.709Z,5.10
2017-11-10T12:28:26.968Z,5.27
2017-11-10T12:30:54.266Z,5.60
2017-11-10T12:33:21.558Z,5.50
2017-11-10T12:35:48.836Z,5.37
2017-11-10T12:38:16.128Z,5.43
2017-11-10T12:40:43.389Z,6.27
2017-11-10T12:43:10.672Z,7.27
2017-11-10T12:45:37.940Z,4.93
2017-11-10T12:48:05.233Z,5.80
2017-11-10T12:50:32.492Z,5.63
2017-11-10T12:52:59.788Z,5.83
2017-11-10T12:55:27.056Z,5.77
2017-11-10T12:57:54.341Z,6.80
2017-11-10T13:00:21.630Z,6.00
2017-11-10T13:02:48.891Z,5.27
2017-11-10T13:05:17.074Z,5.90
2017-11-10T13:07:44.332Z,6.13
2017-11-10T13:10:11.593Z,4.70
2017-11-10T13:12:38.876Z,5.80
2017-11-10T13:15:06.166Z,5.50
2017-11-10T13:17:33.448Z,5.00
2017-11-10T13:20:00.703Z,5.33
2017-11-10T13:22:28.005Z,4.53
2017-11-10T13:24:55.267Z,4.33
2017-11-10T13:27:22.528Z,3.73
2017-11-10T13:29:49.823Z,4.80
2017-11-10T13:32:17.080Z,4.47
2017-11-10T13:34:44.392Z,4.47
2017-11-10T13:37:11.649Z,4.43
2017-11-10T13:39:38.912Z,4.00
2017-11-10T13:42:06.203Z,5.27
2017-11-10T13:44:33.488Z,4.97
2017-11-10T13:47:00.778Z,4.60
2017-11-10T13:49:28.042Z,4.97
2017-11-10T13:51:55.324Z,5.10
2017-11-10T13:54:22.612Z,4.67
2017-11-10T13:56:49.876Z,4.73
2017-11-10T13:59:17.154Z,4.70
2017-11-10T14:01:44.435Z,5.13
2017-11-10T14:04:11.752Z,5.23
2017-11-10T14:06:39.017Z,4.50
2017-11-10T14:09:06.268Z,5.20
2017-11-10T14:11:33.552Z,5.00
2017-11-10T14:14:00.812Z,4.50
2017-11-10T14:16:28.097Z,5.00
2017-11-10T14:18:55.380Z,4.37
2017-11-10T14:21:22.673Z,3.87
2017-11-10T14:23:49.933Z,3.30
2017-11-10T14:26:17.187Z,3.00
2017-11-10T14:28:44.488Z,3.43
2017-11-10T14:31:11.749Z,2.70
2017-11-10T14:33:39.008Z,2.60
2017-11-10T14:36:06.312Z,2.83
2017-11-10T14:38:33.690Z,2.70
2017-11-10T14:41:00.938Z,2.67
2017-11-10T14:43:28.237Z,2.70
2017-11-10T14:45:55.515Z,2.73
2017-11-10T14:48:22.759Z,2.60
2017-11-10T14:50:50.040Z,2.20
2017-11-10T14:55:51.040Z,2.47
2017-11-10T14:58:18.345Z,2.20
2017-11-10T15:00:45.605Z,2.20
2017-11-10T15:03:12.865Z,2.30
2017-11-10T15:05:40.164Z,1.90
2017-11-10T15:08:08.815Z,2.13
2017-11-10T15:10:38.179Z,2.00
2017-11-10T15:13:11.903Z,2.00
2017-11-10T15:15:49.537Z,1.47
2017-11-10T15:18:21.091Z,1.87
2017-11-10T15:20:49.531Z,1.50
2017-11-10T15:23:17.196Z,1.50
2017-11-10T15:25:44.752Z,2.00
2017-11-10T15:28:12.340Z,1.37
2017-11-10T15:30:39.896Z,1.43
2017-11-10T15:33:07.161Z,1.50
2017-11-10T15:35:34.424Z,1.60
2017-11-10T15:38:01.750Z,1.63
2017-11-10T15:40:30.192Z,1.40
2017-11-10T15:42:57.700Z,2.07
2017-11-10T15:45:24.996Z,1.87
2017-11-10T15:47:52.297Z,1.47
2017-11-10T15:50:19.561Z,1.40
2017-11-10T15:52:46.840Z,1.33
2017-11-10T15:55:14.124Z,1.80
2017-11-10T15:57:41.428Z,1.47
2017-11-10T16:00:08.688Z,1.47
2017-11-10T16:02:35.948Z,1.60
2017-11-10T16:05:03.245Z,1.33
2017-11-10T16:07:30.535Z,1.27
2017-11-10T16:09:57.817Z,1.53
2017-11-10T16:12:25.106Z,1.60
2017-11-10T16:14:52.369Z,1.43
2017-11-10T16:17:19.668Z,1.70
2017-11-10T16:19:46.960Z,1.47
2017-11-10T16:22:14.244Z,1.40
2017-11-10T16:24:41.532Z,1.50
2017-11-10T16:27:08.801Z,1.27
2017-11-10T16:29:36.102Z,1.60
2017-11-10T16:32:03.352Z,1.73
2017-11-10T16:34:30.617Z,1.67
2017-11-10T16:36:57.911Z,1.80
2017-11-10T16:39:25.201Z,1.93
2017-11-10T16:41:52.431Z,2.00
2017-11-10T16:44:19.716Z,1.90
2017-11-10T16:46:46.988Z,2.03
2017-11-10T16:49:14.274Z,2.00
2017-11-10T16:51:41.536Z,2.30
2017-11-10T16:54:08.821Z,2.20
2017-11-10T16:56:36.084Z,2.30
2017-11-10T16:59:03.386Z,2.33
2017-11-10T17:01:30.636Z,2.60
2017-11-10T17:03:57.900Z,2.13
2017-11-10T17:06:25.189Z,2.40
2017-11-10T17:08:52.480Z,2.87
2017-11-10T17:11:19.737Z,3.10
2017-11-10T17:13:47.024Z,2.53
2017-11-10T17:16:14.288Z,2.70
2017-11-10T17:18:41.581Z,2.70
2017-11-10T17:21:08.850Z,2.43
2017-11-10T17:23:36.144Z,3.20
2017-11-10T17:26:03.512Z,2.63
2017-11-10T17:28:30.778Z,2.80
2017-11-10T17:30:58.093Z,3.00
2017-11-10T17:33:25.356Z,3.03
2017-11-10T17:35:52.631Z,2.90
2017-11-10T17:38:19.933Z,2.90
2017-11-10T17:40:47.192Z,2.60
2017-11-10T17:43:14.492Z,3.13
2017-11-10T17:45:41.752Z,3.33
2017-11-10T17:48:09.057Z,3.47
2017-11-10T17:50:36.321Z,3.20
2017-11-10T17:53:03.585Z,3.97
2017-11-10T17:55:30.880Z,4.40
2017-11-10T17:57:58.143Z,3.10
2017-11-10T18:00:25.888Z,4.40
2017-11-10T18:02:53.145Z,3.90
2017-11-10T18:05:20.405Z,3.70
2017-11-10T18:07:47.709Z,3.80
2017-11-10T18:10:14.977Z,3.80
2017-11-10T18:12:42.277Z,3.97
2017-11-10T18:15:09.541Z,4.53
2017-11-10T18:17:36.831Z,4.17
2017-11-10T18:20:04.100Z,4.50
2017-11-10T18:22:31.408Z,4.03
2017-11-10T18:24:58.712Z,4.40
2017-11-10T18:27:26.188Z,4.27
2017-11-10T18:29:53.461Z,3.83
2017-11-10T18:32:20.761Z,4.00
2017-11-10T18:34:48.066Z,4.03
2017-11-10T18:37:15.360Z,3.83
2017-11-10T18:39:42.620Z,4.73
2017-11-10T18:42:09.893Z,4.97
2017-11-10T18:44:37.193Z,3.70
2017-11-10T18:47:04.461Z,5.00
2017-11-10T18:49:31.761Z,3.97
2017-11-10T18:51:59.283Z,3.83
2017-11-10T18:54:27.451Z,3.60
2017-11-10T18:57:17.470Z,4.17
2017-11-10T18:59:51.279Z,4.40
2017-11-10T19:02:32.899Z,4.70
2017-11-10T19:05:00.165Z,4.10
2017-11-10T19:07:27.432Z,4.10
2017-11-10T19:09:54.723Z,3.80
2017-11-10T19:12:21.993Z,4.00
2017-11-10T19:14:49.293Z,5.10
2017-11-10T19:17:16.557Z,4.47
2017-11-10T19:19:43.860Z,4.90
2017-11-10T19:22:11.166Z,4.37
2017-11-10T19:24:38.430Z,4.30
2017-11-10T19:27:05.688Z,4.03
2017-11-10T19:29:32.982Z,5.13
2017-11-10T19:32:00.271Z,4.47
2017-11-10T19:34:27.570Z,4.27
2017-11-10T19:36:54.841Z,4.40
2017-11-10T19:39:22.141Z,4.10
2017-11-10T19:41:49.404Z,4.13
2017-11-10T19:44:16.873Z,3.90
2017-11-10T19:46:44.149Z,3.93
2017-11-10T19:49:11.440Z,3.10
2017-11-10T19:51:38.720Z,3.63
2017-11-10T19:54:06.022Z,4.60
2017-11-10T19:56:33.288Z,4.37
2017-11-10T19:59:00.565Z,4.40
2017-11-10T20:01:27.873Z,4.27
2017-11-10T20:03:55.143Z,4.00
2017-11-10T20:06:22.409Z,4.00
2017-11-10T20:08:49.700Z,4.30
2017-11-10T20:11:16.971Z,3.60
2017-11-10T20:13:44.265Z,4.07
2017-11-10T20:16:11.538Z,4.07
2017-11-10T20:18:38.836Z,3.57
2017-11-10T20:21:06.432Z,4.17
2017-11-10T20:23:33.710Z,3.20
2017-11-10T20:26:01.013Z,3.40
2017-11-10T20:28:28.281Z,3.47
2017-11-10T20:30:55.551Z,4.67
2017-11-10T20:33:22.852Z,4.07
2017-11-10T20:35:50.119Z,3.87
2017-11-10T20:38:17.393Z,3.60
2017-11-10T20:40:44.677Z,3.93
2017-11-10T20:43:11.986Z,4.03
2017-11-10T20:45:39.581Z,3.80
2017-11-10T20:48:06.960Z,3.60
2017-11-10T20:50:34.257Z,3.70
2017-11-10T20:53:01.523Z,3.47
2017-11-10T20:55:28.821Z,4.93
2017-11-10T20:57:56.089Z,3.87
2017-11-10T21:00:23.372Z,3.80
2017-11-10T21:02:50.861Z,3.63
2017-11-10T21:05:18.104Z,5.23
2017-11-10T21:07:45.406Z,4.57
2017-11-10T21:10:12.688Z,3.40
2017-11-10T21:12:39.966Z,4.07
2017-11-10T21:15:07.400Z,4.30
2017-11-10T21:17:34.697Z,4.70
2017-11-10T21:20:01.962Z,3.80
2017-11-10T21:22:29.263Z,4.47
2017-11-10T21:24:56.536Z,3.87
2017-11-10T21:27:23.804Z,3.90
2017-11-10T21:29:51.097Z,3.37
2017-11-10T21:32:18.364Z,3.77
2017-11-10T21:34:45.656Z,4.17
2017-11-10T21:37:12.953Z,4.37
2017-11-10T21:39:41.433Z,3.60
2017-11-10T21:42:08.716Z,4.80
2017-11-10T21:44:35.989Z,3.50
2017-11-10T21:47:03.285Z,3.70
2017-11-10T21:49:30.879Z,4.77
2017-11-10T21:51:59.251Z,3.20
2017-11-10T21:54:27.315Z,3.83
2017-11-10T21:56:55.233Z,3.57
2017-11-10T21:59:22.872Z,3.20
2017-11-10T22:01:50.132Z,3.30
2017-11-10T22:04:17.425Z,4.33
2017-11-10T22:06:45.794Z,3.50
2017-11-10T22:09:14.579Z,3.77
2017-11-10T22:11:43.138Z,3.93
2017-11-10T22:14:10.791Z,3.73
2017-11-10T22:16:38.072Z,4.17
2017-11-10T22:19:05.342Z,5.17
2017-11-10T22:21:32.644Z,3.83
2017-11-10T22:23:59.909Z,3.87
2017-11-10T22:26:27.177Z,3.53
2017-11-10T22:28:54.463Z,2.67
2017-11-10T22:31:21.733Z,3.80
2017-11-10T22:33:49.021Z,3.93
2017-11-10T22:36:16.288Z,3.50
2017-11-10T22:38:43.708Z,4.17
2017-11-10T22:41:10.982Z,3.50
2017-11-10T22:43:38.255Z,3.87
2017-11-10T22:46:05.520Z,4.20
2017-11-10T22:48:32.799Z,2.97
2017-11-10T22:51:00.077Z,4.70
2017-11-10T22:53:27.364Z,4.37
2017-11-10T22:55:54.636Z,3.70
2017-11-10T22:58:21.924Z,4.03
2017-11-10T23:00:49.189Z,3.87
2017-11-10T23:03:16.493Z,3.90
2017-11-10T23:05:43.766Z,4.27
2017-11-10T23:08:11.176Z,4.43
2017-11-10T23:10:38.508Z,3.83
2017-11-10T23:13:05.776Z,5.53
2017-11-10T23:15:33.057Z,4.10
2017-11-10T23:18:00.317Z,3.50
2017-11-10T23:20:27.609Z,3.60
2017-11-10T23:22:54.865Z,4.30
2017-11-10T23:25:22.166Z,3.73
2017-11-10T23:27:49.421Z,4.07
2017-11-10T23:30:16.710Z,4.37
2017-11-10T23:32:43.985Z,5.20
2017-11-10T23:35:11.251Z,4.63
2017-11-10T23:37:38.527Z,4.33
2017-11-10T23:40:05.823Z,4.03
2017-11-10T23:42:33.103Z,4.10
2017-11-10T23:45:00.405Z,3.83
2017-11-10T23:47:27.668Z,4.40
2017-11-10T23:49:54.981Z,3.13
2017-11-10T23:52:22.243Z,4.60
2017-11-10T23:54:49.507Z,4.30
2017-11-10T23:57:16.792Z,4.63
2017-11-10T23:59:44.069Z,4.43
